Time;durP1;ratioP1;P1;durP2;ratioP2;P2;SDS_P1;SDS_P2;PMS_P1;PMS_P2;Temp;Humidity;BMP_temperature;BMP_pressure;BME280_temperature;BME280_humidity;BME280_pressure;Samples;Min_cycle;Max_cycle;Signal;HPM_P1;HPM_P2
2023/03/19 05:00:40;;;;;;;10.98;5.93;;;8.80;99.90;;;;;;5811030;23;20225;-69
2023/03/19 05:03:07;;;;;;;9.07;5.65;;;8.80;99.90;;;;;;4944434;28;20224;-69
2023/03/19 05:05:34;;;;;;;10.80;7.60;;;8.80;99.90;;;;;;4947828;29;20330;-68
2023/03/19 05:08:02;;;;;;;4.68;4.15;;;8.80;99.90;;;;;;4947027;29;20225;-68
2023/03/19 05:10:28;;;;;;;8.63;7.05;;;8.80;99.90;;;;;;4943399;28;20293;-69
2023/03/19 05:12:55;;;;;;;10.65;9.05;;;8.70;99.90;;;;;;4942554;29;20201;-69
2023/03/19 05:15:22;;;;;;;8.52;7.30;;;8.70;99.90;;;;;;4934574;29;20207;-69
2023/03/19 05:17:50;;;;;;;6.47;5.95;;;8.70;99.90;;;;;;4955459;23;20682;-71
2023/03/19 05:20:18;;;;;;;8.10;4.40;;;8.70;99.90;;;;;;4928936;29;20207;-70
2023/03/19 05:22:45;;;;;;;6.68;6.10;;;8.70;99.90;;;;;;4922585;29;20244;-68
2023/03/19 05:25:12;;;;;;;7.75;6.00;;;8.70;99.90;;;;;;4924206;29;20321;-67
2023/03/19 05:27:39;;;;;;;10.52;6.72;;;8.70;99.90;;;;;;4920829;29;20613;-68
2023/03/19 05:30:07;;;;;;;6.82;5.80;;;8.60;99.90;;;;;;4913952;29;20221;-67
2023/03/19 05:32:34;;;;;;;8.90;5.70;;;8.60;99.90;;;;;;4909200;29;20214;-67
2023/03/19 05:35:02;;;;;;;11.80;5.15;;;8.60;99.90;;;;;;4906448;29;20272;-71
2023/03/19 05:37:30;;;;;;;7.18;6.43;;;8.60;99.90;;;;;;4910354;29;20286;-68
2023/03/19 05:39:57;;;;;;;7.68;6.13;;;8.60;99.90;;;;;;4914109;29;20407;-68
2023/03/19 05:42:24;;;;;;;7.03;6.43;;;8.60;99.90;;;;;;4908663;29;20218;-69
2023/03/19 05:44:50;;;;;;;6.82;6.28;;;8.60;99.90;;;;;;4912524;29;20226;-67
2023/03/19 05:47:17;;;;;;;11.85;7.28;;;8.60;99.90;;;;;;4903391;29;20274;-68
2023/03/19 05:49:44;;;;;;;6.72;5.32;;;8.60;99.90;;;;;;4912035;29;20230;-67
2023/03/19 05:52:12;;;;;;;6.65;6.15;;;8.60;99.90;;;;;;4907872;29;20233;-67
2023/03/19 05:54:40;;;;;;;9.68;5.45;;;8.60;99.90;;;;;;4912859;29;20210;-67
2023/03/19 05:57:07;;;;;;;8.15;6.00;;;8.60;99.90;;;;;;4908592;29;20217;-67
2023/03/19 05:59:34;;;;;;;7.50;6.78;;;8.60;99.90;;;;;;4912343;29;20266;-67
2023/03/19 06:02:01;;;;;;;6.78;6.03;;;8.60;99.90;;;;;;4907506;29;20226;-69
2023/03/19 06:04:28;;;;;;;8.02;7.20;;;8.60;99.90;;;;;;4911552;29;20233;-69
2023/03/19 06:06:55;;;;;;;6.15;5.60;;;8.60;99.90;;;;;;4910657;29;20211;-67
2023/03/19 06:09:23;;;;;;;6.57;5.95;;;8.70;99.90;;;;;;4912910;29;20217;-69
2023/03/19 06:11:50;;;;;;;8.70;6.25;;;8.70;99.90;;;;;;4912630;29;20210;-67
2023/03/19 06:14:16;;;;;;;8.07;7.25;;;8.70;99.90;;;;;;4901795;29;20210;-67
2023/03/19 06:16:43;;;;;;;6.38;5.93;;;8.70;99.90;;;;;;4912512;29;20233;-67
2023/03/19 06:19:10;;;;;;;8.93;6.38;;;8.70;99.90;;;;;;4907641;29;20238;-67
2023/03/19 06:21:37;;;;;;;9.75;5.72;;;8.70;99.90;;;;;;4911210;29;20695;-68
2023/03/19 06:24:04;;;;;;;6.80;6.00;;;8.70;99.90;;;;;;4897961;29;20275;-67
2023/03/19 06:26:32;;;;;;;7.57;6.80;;;8.70;99.90;;;;;;4899296;29;20237;-67
2023/03/19 06:28:59;;;;;;;7.72;5.97;;;8.70;99.90;;;;;;4904381;29;20234;-68
2023/03/19 06:31:26;;;;;;;13.35;7.50;;;8.80;99.90;;;;;;4903073;29;20230;-67
2023/03/19 06:33:53;;;;;;;5.80;5.20;;;8.90;99.90;;;;;;4910266;29;20222;-68
2023/03/19 06:36:20;;;;;;;8.93;7.25;;;8.90;99.90;;;;;;4904039;29;20206;-68
2023/03/19 06:38:46;;;;;;;5.63;5.13;;;8.90;99.90;;;;;;4914546;29;20341;-69
2023/03/19 06:41:13;;;;;;;11.60;7.70;;;8.90;99.90;;;;;;4905991;29;20219;-68
2023/03/19 06:43:41;;;;;;;14.13;7.45;;;8.90;99.90;;;;;;4907852;29;20219;-67
2023/03/19 06:46:09;;;;;;;6.80;6.10;;;9.00;99.90;;;;;;4906216;29;20234;-67
2023/03/19 06:48:36;;;;;;;8.25;6.70;;;9.00;99.90;;;;;;4908785;29;20250;-67
2023/03/19 06:51:04;;;;;;;7.32;6.28;;;9.10;99.90;;;;;;4913316;29;20237;-67
2023/03/19 06:53:31;;;;;;;7.47;6.75;;;9.10;99.90;;;;;;4904135;29;20207;-69
2023/03/19 06:55:57;;;;;;;7.13;6.53;;;9.20;99.90;;;;;;4901343;29;20229;-68
2023/03/19 06:58:24;;;;;;;5.80;5.30;;;9.20;99.90;;;;;;4909684;29;20234;-67
2023/03/19 07:00:52;;;;;;;9.82;7.32;;;9.30;99.90;;;;;;4907144;29;20219;-69
2023/03/19 07:03:19;;;;;;;7.53;6.40;;;9.30;99.90;;;;;;4900606;29;20214;-67
2023/03/19 07:05:48;;;;;;;7.03;6.28;;;9.30;99.90;;;;;;4911473;29;20249;-69
2023/03/19 07:08:15;;;;;;;10.85;6.72;;;9.40;99.90;;;;;;4911116;29;20238;-69
2023/03/19 07:10:41;;;;;;;14.82;6.07;;;9.40;99.90;;;;;;4912975;29;20667;-69
2023/03/19 07:13:08;;;;;;;5.80;5.40;;;9.40;99.90;;;;;;4905726;29;20218;-69
2023/03/19 07:15:36;;;;;;;12.00;9.82;;;9.50;99.90;;;;;;4907199;29;20585;-69
2023/03/19 07:18:04;;;;;;;4.63;4.22;;;9.60;99.90;;;;;;4911502;29;20233;-68
2023/03/19 07:20:31;;;;;;;16.20;6.78;;;9.60;99.90;;;;;;4911730;29;20214;-68
2023/03/19 07:22:58;;;;;;;6.65;5.88;;;9.70;99.90;;;;;;4907687;29;20613;-69
2023/03/19 07:25:24;;;;;;;4.90;4.57;;;9.80;99.90;;;;;;4899834;29;20289;-68
2023/03/19 07:27:51;;;;;;;4.13;3.75;;;9.90;99.90;;;;;;4910975;29;20237;-68
2023/03/19 07:30:18;;;;;;;8.50;7.63;;;9.90;99.90;;;;;;4904974;29;20210;-69
2023/03/19 07:32:45;;;;;;;7.32;6.55;;;9.90;99.90;;;;;;4909330;29;20233;-68
2023/03/19 07:35:14;;;;;;;7.53;6.35;;;10.00;99.90;;;;;;4911242;29;20204;-70
2023/03/19 07:37:42;;;;;;;9.55;6.30;;;10.10;99.90;;;;;;4905993;29;20286;-69
2023/03/19 07:40:10;;;;;;;10.32;6.72;;;10.10;99.90;;;;;;4909712;29;20211;-68
2023/03/19 07:42:37;;;;;;;8.27;7.32;;;10.20;99.90;;;;;;4910388;29;20217;-71
2023/03/19 07:45:04;;;;;;;9.88;6.00;;;10.20;99.90;;;;;;4912353;29;20241;-71
2023/03/19 07:47:31;;;;;;;5.97;5.47;;;10.30;99.90;;;;;;4911847;29;20579;-69
2023/03/19 07:49:58;;;;;;;6.60;6.07;;;10.30;99.90;;;;;;4905276;29;20211;-70
2023/03/19 07:52:26;;;;;;;12.25;7.20;;;10.40;99.90;;;;;;4904786;29;20220;-70
2023/03/19 07:54:53;;;;;;;5.68;5.10;;;10.40;99.90;;;;;;4906340;29;20294;-69
2023/03/19 07:57:20;;;;;;;7.22;6.50;;;10.50;99.90;;;;;;4906892;29;20306;-70
2023/03/19 07:59:47;;;;;;;9.20;6.28;;;10.60;99.90;;;;;;4907620;29;20576;-69
2023/03/19 08:02:14;;;;;;;7.13;5.55;;;10.70;99.90;;;;;;4909665;29;20215;-69
2023/03/19 08:04:41;;;;;;;8.80;5.53;;;10.80;99.90;;;;;;4910463;29;20199;-69
2023/03/19 08:07:09;;;;;;;9.50;5.60;;;10.80;99.90;;;;;;4911585;29;20254;-70
2023/03/19 08:09:38;;;;;;;7.83;5.57;;;10.90;99.90;;;;;;4908687;29;20746;-68
2023/03/19 08:12:06;;;;;;;6.30;5.68;;;11.10;99.90;;;;;;4907103;29;20786;-68
2023/03/19 08:14:33;;;;;;;6.50;5.87;;;11.20;99.90;;;;;;4905667;29;20669;-70
2023/03/19 08:17:00;;;;;;;6.87;6.17;;;11.30;99.90;;;;;;4904698;29;20471;-69
2023/03/19 08:19:27;;;;;;;7.50;6.90;;;11.40;99.90;;;;;;4900092;29;20483;-69
2023/03/19 08:21:54;;;;;;;12.73;6.80;;;11.40;99.90;;;;;;4895093;29;20470;-68
2023/03/19 08:24:21;;;;;;;10.70;6.60;;;11.50;99.90;;;;;;4904866;29;20502;-70
2023/03/19 08:26:50;;;;;;;7.20;6.37;;;11.60;99.90;;;;;;4903619;29;20525;-69
2023/03/19 08:29:17;;;;;;;7.30;6.00;;;11.60;99.90;;;;;;4904722;29;20485;-72
2023/03/19 08:31:44;;;;;;;5.67;4.70;;;11.70;99.90;;;;;;4902951;29;20478;-70
2023/03/19 08:34:10;;;;;;;5.33;4.57;;;11.70;99.90;;;;;;4910107;29;20490;-69
2023/03/19 08:36:37;;;;;;;5.77;5.23;;;11.70;99.90;;;;;;4900043;29;20502;-71
2023/03/19 08:39:04;;;;;;;4.43;3.87;;;11.80;99.90;;;;;;4900467;29;20853;-70
2023/03/19 08:41:31;;;;;;;5.80;4.40;;;11.90;99.90;;;;;;4903340;29;20478;-69
2023/03/19 08:43:59;;;;;;;6.40;5.70;;;12.00;99.90;;;;;;4902833;29;20474;-70
2023/03/19 08:46:27;;;;;;;7.60;3.83;;;12.20;99.90;;;;;;4908740;29;20491;-70
2023/03/19 08:48:54;;;;;;;4.30;3.93;;;12.30;99.90;;;;;;4906235;29;20498;-69
2023/03/19 08:51:22;;;;;;;4.73;4.40;;;12.40;99.90;;;;;;4914380;29;20469;-69
2023/03/19 08:53:49;;;;;;;5.07;4.67;;;12.50;99.90;;;;;;4896868;29;20990;-69
2023/03/19 08:56:16;;;;;;;4.37;3.97;;;12.60;99.90;;;;;;4910587;29;20585;-70
2023/03/19 08:58:44;;;;;;;4.43;4.00;;;12.70;99.90;;;;;;4901610;29;20494;-67
2023/03/19 09:01:13;;;;;;;4.10;3.73;;;12.90;99.90;;;;;;4905904;29;20510;-66
2023/03/19 09:03:42;;;;;;;4.27;3.87;;;12.90;99.90;;;;;;4913749;29;20470;-69
2023/03/19 09:06:10;;;;;;;3.47;3.20;;;13.00;99.90;;;;;;4917289;29;21013;-69
2023/03/19 09:08:38;;;;;;;3.50;3.30;;;13.10;99.90;;;;;;4909603;29;20505;-69
2023/03/19 09:11:05;;;;;;;3.20;3.00;;;13.20;99.90;;;;;;4912172;29;20508;-69
2023/03/19 09:13:32;;;;;;;6.00;5.50;;;13.20;99.90;;;;;;4902946;29;20466;-70
2023/03/19 09:16:00;;;;;;;5.30;3.60;;;13.20;99.90;;;;;;4914102;29;20845;-69
2023/03/19 09:18:28;;;;;;;2.73;2.60;;;13.40;99.90;;;;;;4913070;29;20530;-70
2023/03/19 09:20:55;;;;;;;3.37;3.13;;;13.60;99.90;;;;;;4900783;29;20523;-70
2023/03/19 09:23:22;;;;;;;2.63;2.53;;;13.70;99.90;;;;;;4915557;29;20490;-69
2023/03/19 09:25:49;;;;;;;1.90;1.80;;;13.90;99.90;;;;;;4905438;29;21013;-70
2023/03/19 09:28:16;;;;;;;4.23;2.90;;;14.00;99.90;;;;;;4908472;29;20582;-69
2023/03/19 09:30:45;;;;;;;2.20;2.10;;;13.90;99.90;;;;;;4912732;29;20501;-70
2023/03/19 09:33:12;;;;;;;2.20;2.20;;;14.00;99.90;;;;;;4914606;29;20484;-68
2023/03/19 09:35:40;;;;;;;1.90;1.80;;;14.00;99.90;;;;;;4908051;29;20473;-68
2023/03/19 09:38:07;;;;;;;1.60;1.50;;;14.00;99.90;;;;;;4907349;29;20478;-69
2023/03/19 09:40:37;;;;;;;3.43;3.13;;;14.00;99.90;;;;;;4914233;29;20471;-69
2023/03/19 09:43:20;;;;;;;4.27;1.63;;;14.00;99.90;;;;;;4906901;29;20478;-68
2023/03/19 09:45:48;;;;;;;1.90;1.80;;;14.00;99.90;;;;;;4911928;29;20490;-71
2023/03/19 09:48:18;;;;;;;1.60;1.60;;;14.00;99.90;;;;;;4902106;29;20847;-68
2023/03/19 09:50:49;;;;;;;2.00;1.90;;;14.10;99.90;;;;;;4909951;29;20482;-69
2023/03/19 09:53:25;;;;;;;1.67;1.67;;;14.20;99.90;;;;;;4904260;29;20562;-70
2023/03/19 09:55:53;;;;;;;2.40;2.30;;;14.30;99.90;;;;;;4907816;29;20467;-69
2023/03/19 09:58:22;;;;;;;1.27;1.23;;;14.40;99.90;;;;;;4910112;29;20488;-69
2023/03/19 10:00:50;;;;;;;2.40;1.57;;;14.50;99.90;;;;;;4913115;29;20473;-69
2023/03/19 10:03:41;;;;;;;2.13;2.07;;;14.60;99.90;;;;;;4904025;29;20466;-69
2023/03/19 10:06:24;;;;;;;2.10;2.00;;;14.70;99.90;;;;;;4911749;29;20526;-68
2023/03/19 10:09:04;;;;;;;1.70;1.60;;;14.80;99.90;;;;;;4908228;29;20500;-68
2023/03/19 10:11:56;;;;;;;1.90;1.67;;;14.80;99.90;;;;;;4910906;29;20501;-68
2023/03/19 10:14:48;;;;;;;1.37;1.37;;;14.90;99.90;;;;;;4901671;29;20612;-68
2023/03/19 10:17:19;;;;;;;3.50;1.63;;;14.90;99.90;;;;;;4908710;29;20498;-69
2023/03/19 10:19:51;;;;;;;1.60;1.30;;;15.00;99.90;;;;;;4913695;29;20490;-69
2023/03/19 10:22:24;;;;;;;0.90;0.90;;;15.00;99.90;;;;;;4905924;29;20566;-68
2023/03/19 10:24:53;;;;;;;1.30;1.20;;;15.00;99.90;;;;;;4905081;29;20873;-68
2023/03/19 10:27:22;;;;;;;1.20;1.20;;;15.10;99.90;;;;;;4907095;29;20505;-69
2023/03/19 10:29:50;;;;;;;1.13;1.13;;;15.10;99.90;;;;;;4906741;29;20531;-68
2023/03/19 10:32:19;;;;;;;8.57;2.07;;;15.20;99.90;;;;;;4903629;29;20479;-69
2023/03/19 10:34:48;;;;;;;1.10;0.90;;;15.30;99.90;;;;;;4903146;29;20470;-68
2023/03/19 10:37:19;;;;;;;1.90;1.80;;;15.30;99.90;;;;;;4908829;29;20491;-69
2023/03/19 10:39:48;;;;;;;1.60;1.60;;;15.40;99.90;;;;;;4913947;29;20475;-68
2023/03/19 10:42:40;;;;;;;1.23;1.23;;;15.40;99.90;;;;;;4913763;29;20481;-68
2023/03/19 10:45:19;;;;;;;1.20;1.13;;;15.40;99.90;;;;;;4914453;29;21058;-70
2023/03/19 10:47:45;;;;;;;1.50;1.40;;;15.50;99.90;;;;;;4913501;29;20490;-68
2023/03/19 10:50:17;;;;;;;1.83;1.73;;;15.60;99.90;;;;;;4905135;29;20811;-68
2023/03/19 10:52:45;;;;;;;0.50;0.50;;;15.60;99.90;;;;;;4901635;29;20820;-71
2023/03/19 10:55:16;;;;;;;1.87;1.43;;;15.60;99.90;;;;;;4911174;29;20545;-68
2023/03/19 10:57:45;;;;;;;3.80;1.20;;;15.70;99.90;;;;;;4913422;29;20540;-70
2023/03/19 11:00:17;;;;;;;2.60;1.57;;;15.70;99.90;;;;;;4910512;29;20463;-68
2023/03/19 11:02:50;;;;;;;0.90;0.90;;;15.80;99.90;;;;;;4905633;29;20471;-68
2023/03/19 11:05:25;;;;;;;1.00;1.00;;;15.80;99.90;;;;;;4905888;29;20458;-68
2023/03/19 11:07:57;;;;;;;1.20;1.20;;;15.90;99.90;;;;;;4911450;29;20505;-68
2023/03/19 11:10:28;;;;;;;0.80;0.80;;;15.80;99.90;;;;;;4913129;29;20489;-69
2023/03/19 11:12:57;;;;;;;5.73;2.27;;;15.90;99.90;;;;;;4900737;29;20565;-69
2023/03/19 11:15:28;;;;;;;2.00;1.20;;;16.00;99.90;;;;;;4902894;29;20470;-68
2023/03/19 11:18:00;;;;;;;2.70;1.43;;;16.00;99.90;;;;;;4917794;23;20460;-70
2023/03/19 11:20:32;;;;;;;0.90;0.90;;;16.00;99.90;;;;;;4911874;29;20478;-69
2023/03/19 11:23:02;;;;;;;1.20;1.10;;;16.00;99.90;;;;;;4904994;28;20971;-70
2023/03/19 11:25:35;;;;;;;0.90;0.90;;;16.10;99.90;;;;;;4912199;29;20477;-69
2023/03/19 11:28:07;;;;;;;4.90;1.20;;;16.10;99.90;;;;;;4909509;29;21007;-71
2023/03/19 11:30:41;;;;;;;1.70;1.30;;;16.20;99.90;;;;;;4913151;29;20471;-69
2023/03/19 11:33:40;;;;;;;1.53;0.80;;;16.40;99.90;;;;;;4912766;29;20892;-71
2023/03/19 11:36:13;;;;;;;0.67;0.67;;;16.60;99.90;;;;;;4912236;29;20781;-69
2023/03/19 11:38:50;;;;;;;0.50;0.50;;;16.60;99.90;;;;;;4911946;29;20865;-69
2023/03/19 11:41:28;;;;;;;2.53;0.50;;;16.70;99.90;;;;;;4907321;29;20470;-70
2023/03/19 11:43:59;;;;;;;1.50;0.60;;;16.70;99.90;;;;;;4913111;29;20466;-70
2023/03/19 11:46:35;;;;;;;0.57;0.57;;;16.80;99.90;;;;;;4913071;29;20520;-69
2023/03/19 11:49:28;;;;;;;0.70;0.70;;;16.80;99.90;;;;;;4908850;29;20517;-72
2023/03/19 11:52:01;;;;;;;0.70;0.70;;;16.70;99.90;;;;;;4904865;29;20471;-71
2023/03/19 11:54:37;;;;;;;0.90;0.90;;;16.60;99.90;;;;;;4907385;29;20482;-69
2023/03/19 11:57:11;;;;;;;0.60;0.60;;;16.60;99.90;;;;;;4913438;29;20931;-70
2023/03/19 11:59:55;;;;;;;0.40;0.40;;;16.60;99.90;;;;;;4913760;29;20527;-70
2023/03/19 12:02:42;;;;;;;0.47;0.47;;;16.60;99.90;;;;;;4898151;29;20467;-70
2023/03/19 12:05:21;;;;;;;0.60;0.60;;;16.70;99.90;;;;;;4908900;29;20959;-68
2023/03/19 12:08:02;;;;;;;0.57;0.57;;;16.80;99.90;;;;;;4911793;29;20493;-70
2023/03/19 12:10:39;;;;;;;0.77;0.63;;;17.00;99.90;;;;;;4911683;29;20474;-70
2023/03/19 12:13:17;;;;;;;0.40;0.40;;;17.10;99.90;;;;;;4909845;29;20482;-70
2023/03/19 12:15:56;;;;;;;0.63;0.40;;;17.00;99.90;;;;;;4912265;29;20569;-72
2023/03/19 12:18:41;;;;;;;1.37;0.83;;;17.10;99.90;;;;;;4914059;29;20538;-71
2023/03/19 12:21:13;;;;;;;0.40;0.40;;;17.20;99.90;;;;;;4914220;29;21026;-70
2023/03/19 12:23:56;;;;;;;2.53;1.00;;;17.20;99.90;;;;;;4907559;29;20516;-72
2023/03/19 12:26:29;;;;;;;0.73;0.73;;;17.10;99.90;;;;;;4911256;29;20475;-70
2023/03/19 12:29:03;;;;;;;0.50;0.50;;;17.00;99.90;;;;;;4912310;29;20940;-69
2023/03/19 12:31:49;;;;;;;3.13;0.67;;;17.00;99.90;;;;;;4909141;29;20473;-70
2023/03/19 12:34:24;;;;;;;0.70;0.70;;;17.20;99.90;;;;;;4912366;29;20469;-73
2023/03/19 12:36:54;;;;;;;0.80;0.80;;;17.20;99.90;;;;;;4916602;29;21002;-71
2023/03/19 12:39:25;;;;;;;0.60;0.60;;;17.30;99.90;;;;;;4913887;29;20494;-71
2023/03/19 12:41:56;;;;;;;1.50;0.60;;;17.30;99.90;;;;;;4911235;29;20489;-72
2023/03/19 12:44:29;;;;;;;0.77;0.77;;;17.30;99.90;;;;;;4912087;29;20509;-70
2023/03/19 12:47:01;;;;;;;0.97;0.97;;;17.30;99.90;;;;;;4914085;29;20505;-69
2023/03/19 12:49:34;;;;;;;0.40;0.40;;;17.30;99.90;;;;;;4916658;29;20557;-67
2023/03/19 12:52:07;;;;;;;0.70;0.70;;;17.40;99.90;;;;;;4916916;29;20982;-68
2023/03/19 12:54:38;;;;;;;0.33;0.33;;;17.50;99.90;;;;;;4906041;29;20738;-69
2023/03/19 12:57:11;;;;;;;0.97;0.70;;;17.50;99.90;;;;;;4914604;29;20463;-69
2023/03/19 12:59:46;;;;;;;0.70;0.70;;;17.50;99.90;;;;;;4911685;29;20505;-70
2023/03/19 13:02:22;;;;;;;0.57;0.57;;;17.50;99.90;;;;;;4916301;29;20477;-69
2023/03/19 13:04:53;;;;;;;0.93;0.93;;;17.60;99.90;;;;;;4916541;29;20841;-69
2023/03/19 13:07:24;;;;;;;0.70;0.70;;;17.50;99.90;;;;;;4914661;29;20506;-69
2023/03/19 13:09:56;;;;;;;0.60;0.60;;;17.60;99.90;;;;;;4910203;29;20579;-71
2023/03/19 13:12:25;;;;;;;0.70;0.70;;;17.50;99.90;;;;;;4914554;29;20481;-69
2023/03/19 13:15:00;;;;;;;0.70;0.70;;;17.50;99.90;;;;;;4913802;29;20475;-69
2023/03/19 13:17:35;;;;;;;0.90;0.87;;;17.50;99.90;;;;;;4914785;29;20463;-69
2023/03/19 13:20:13;;;;;;;0.80;0.80;;;17.50;99.90;;;;;;4915995;29;20827;-69
2023/03/19 13:22:44;;;;;;;1.07;1.07;;;17.50;99.90;;;;;;4911821;29;22622;-70
2023/03/19 13:25:17;;;;;;;0.70;0.70;;;17.50;99.90;;;;;;4911311;29;20489;-70
2023/03/19 13:27:53;;;;;;;0.67;0.67;;;17.50;99.90;;;;;;4906686;29;21757;-68
2023/03/19 13:30:24;;;;;;;0.60;0.60;;;17.50;99.90;;;;;;4915806;29;20565;-68
2023/03/19 13:33:00;;;;;;;3.40;1.07;;;17.50;99.90;;;;;;4912492;29;20474;-69
2023/03/19 13:35:37;;;;;;;0.60;0.60;;;17.40;99.90;;;;;;4912643;29;22605;-68
2023/03/19 13:38:15;;;;;;;1.03;1.00;;;17.40;99.90;;;;;;4912420;29;20575;-69
2023/03/19 13:40:44;;;;;;;0.70;0.70;;;17.40;99.90;;;;;;4915494;29;20529;-69
2023/03/19 13:43:42;;;;;;;0.70;0.70;;;17.40;99.90;;;;;;4913293;29;20466;-70
2023/03/19 13:49:29;;;;;;;0.43;0.43;;;17.30;99.90;;;;;;5081111;27;20582;-71
2023/03/19 13:52:00;;;;;;;0.70;0.70;;;17.20;99.90;;;;;;5062933;28;20462;-69
2023/03/19 13:54:37;;;;;;;0.60;0.60;;;17.10;99.90;;;;;;5054071;28;20462;-70
2023/03/19 13:57:19;;;;;;;0.57;0.57;;;17.10;99.90;;;;;;5060624;28;20466;-70
2023/03/19 13:59:48;;;;;;;0.37;0.37;;;17.00;99.90;;;;;;5063805;28;20479;-69
2023/03/19 14:02:49;;;;;;;0.77;0.77;;;17.00;99.90;;;;;;5061861;28;20475;-68
2023/03/19 14:05:21;;;;;;;0.50;0.40;;;17.00;99.90;;;;;;5062408;28;20467;-69
2023/03/19 14:07:53;;;;;;;0.50;0.50;;;17.10;99.90;;;;;;5056059;28;20560;-70
2023/03/19 14:10:25;;;;;;;0.50;0.50;;;17.00;99.90;;;;;;5065635;28;20473;-69
2023/03/19 14:13:00;;;;;;;0.67;0.57;;;17.10;99.90;;;;;;5067396;28;20487;-66
2023/03/19 14:15:29;;;;;;;0.50;0.50;;;17.10;99.90;;;;;;5058114;28;20467;-67
2023/03/19 14:18:00;;;;;;;0.37;0.37;;;17.10;99.90;;;;;;5062751;28;20552;-67
2023/03/19 14:20:31;;;;;;;0.40;0.40;;;17.00;99.90;;;;;;5065997;28;20962;-68
2023/03/19 14:23:20;;;;;;;1.20;1.20;;;17.00;99.90;;;;;;5065414;28;20460;-67
2023/03/19 14:25:58;;;;;;;3.40;1.10;;;16.80;99.90;;;;;;5063042;28;20943;-69
2023/03/19 14:28:35;;;;;;;0.60;0.60;;;16.70;99.90;;;;;;5064460;28;20487;-68
2023/03/19 14:31:02;;;;;;;0.70;0.70;;;16.70;99.90;;;;;;5070478;28;21026;-68
2023/03/19 14:33:39;;;;;;;0.80;0.80;;;16.60;99.90;;;;;;5066565;28;20460;-67
2023/03/19 14:36:12;;;;;;;0.87;0.87;;;16.60;99.90;;;;;;5063891;28;20467;-68
2023/03/19 14:38:43;;;;;;;1.37;1.37;;;16.60;99.90;;;;;;5064203;28;20899;-69
2023/03/19 14:41:16;;;;;;;0.70;0.70;;;16.50;99.90;;;;;;5062825;28;20486;-68
2023/03/19 14:44:05;;;;;;;0.70;0.70;;;16.60;99.90;;;;;;5060405;28;20463;-70
2023/03/19 14:46:46;;;;;;;1.57;1.33;;;16.60;99.90;;;;;;5056528;28;20459;-68
2023/03/19 14:49:43;;;;;;;1.40;1.40;;;16.70;99.90;;;;;;5066186;28;20808;-68
2023/03/19 14:52:15;;;;;;;0.80;0.77;;;16.80;99.90;;;;;;5067255;28;20482;-68
2023/03/19 14:54:46;;;;;;;1.50;1.50;;;16.80;99.90;;;;;;5065756;28;20474;-68
2023/03/19 14:57:17;;;;;;;1.63;1.63;;;16.70;99.90;;;;;;5067418;28;20459;-69
2023/03/19 14:59:44;;;;;;;1.50;1.50;;;16.70;99.90;;;;;;5056928;28;20868;-68
2023/03/19 15:02:31;;;;;;;2.70;2.50;;;16.50;99.90;;;;;;5050952;28;20471;-68
2023/03/19 15:04:58;;;;;;;2.83;2.20;;;16.30;99.90;;;;;;5048901;28;20913;-68
2023/03/19 15:07:30;;;;;;;6.63;1.73;;;16.20;99.90;;;;;;5051899;28;20488;-67
2023/03/19 15:10:01;;;;;;;1.83;1.73;;;16.10;99.90;;;;;;5053548;28;21095;-69
2023/03/19 15:13:05;;;;;;;2.63;2.50;;;16.00;99.90;;;;;;5053807;28;20468;-68
2023/03/19 15:15:49;;;;;;;2.50;2.40;;;15.90;99.90;;;;;;4989098;28;20994;-68
2023/03/19 15:18:19;;;;;;;2.57;2.47;;;15.90;99.90;;;;;;5053735;28;20480;-69
2023/03/19 15:20:53;;;;;;;2.47;2.47;;;15.70;99.90;;;;;;5053040;28;20449;-71
2023/03/19 15:23:24;;;;;;;2.57;2.40;;;15.60;99.90;;;;;;5036825;28;20586;-68
2023/03/19 15:25:55;;;;;;;3.37;3.27;;;15.60;99.90;;;;;;5051070;28;20552;-68
2023/03/19 15:28:23;;;;;;;2.90;2.80;;;15.50;99.90;;;;;;5048106;28;20567;-69
2023/03/19 15:30:56;;;;;;;2.53;2.27;;;15.50;99.90;;;;;;5055885;28;20484;-70
2023/03/19 15:33:30;;;;;;;2.00;2.00;;;15.50;99.90;;;;;;5047504;28;20468;-68
2023/03/19 15:36:00;;;;;;;3.00;2.80;;;15.50;99.90;;;;;;5055242;28;20475;-68
2023/03/19 15:38:32;;;;;;;2.87;2.77;;;15.50;99.90;;;;;;5059096;28;20591;-68
2023/03/19 15:41:00;;;;;;;2.27;2.07;;;15.50;99.90;;;;;;5050449;28;20549;-68
2023/03/19 15:43:27;;;;;;;2.87;2.77;;;15.40;99.90;;;;;;5045047;28;20467;-68
2023/03/19 15:45:55;;;;;;;2.77;2.63;;;15.40;99.90;;;;;;5049749;28;20470;-68
2023/03/19 15:48:25;;;;;;;3.07;2.90;;;15.40;99.90;;;;;;5051420;28;20515;-68
2023/03/19 15:50:56;;;;;;;3.40;3.20;;;15.30;99.90;;;;;;5045080;28;21056;-69
2023/03/19 15:53:26;;;;;;;2.70;2.60;;;15.30;99.90;;;;;;5045281;28;20468;-69
2023/03/19 15:55:55;;;;;;;2.83;1.60;;;15.20;99.90;;;;;;5049461;28;20845;-68
2023/03/19 15:58:24;;;;;;;2.30;2.20;;;15.20;99.90;;;;;;5046092;28;20844;-71
2023/03/19 16:00:53;;;;;;;2.63;2.53;;;15.20;99.90;;;;;;5047417;28;20496;-70
2023/03/19 16:03:24;;;;;;;3.03;2.93;;;15.10;99.90;;;;;;5044321;28;20477;-68
2023/03/19 16:05:52;;;;;;;3.47;3.37;;;15.10;99.90;;;;;;5047729;28;20469;-69
2023/03/19 16:08:22;;;;;;;5.23;4.83;;;15.00;99.90;;;;;;5044854;28;20589;-70
2023/03/19 16:10:49;;;;;;;3.73;3.57;;;14.90;99.90;;;;;;5045323;28;20475;-71
2023/03/19 16:13:27;;;;;;;3.87;3.50;;;14.80;99.90;;;;;;5044400;28;20522;-69
2023/03/19 16:15:56;;;;;;;3.57;3.47;;;14.80;99.90;;;;;;5047417;28;20481;-71
2023/03/19 16:18:25;;;;;;;6.00;3.77;;;14.70;99.90;;;;;;5046175;28;20479;-70
2023/03/19 16:21:06;;;;;;;3.43;3.20;;;14.70;99.90;;;;;;5041029;28;20476;-70
2023/03/19 16:23:35;;;;;;;4.13;3.83;;;14.60;99.90;;;;;;5044766;28;20494;-67
2023/03/19 16:26:15;;;;;;;3.70;3.30;;;14.60;99.90;;;;;;5049622;28;20478;-71
2023/03/19 16:28:48;;;;;;;5.73;4.73;;;14.50;99.90;;;;;;5046318;28;20495;-69
2023/03/19 16:31:24;;;;;;;3.10;2.90;;;14.50;99.90;;;;;;5045043;28;20472;-69
2023/03/19 16:33:52;;;;;;;4.73;4.50;;;14.40;99.90;;;;;;5048797;28;20467;-69
2023/03/19 16:36:20;;;;;;;3.87;3.67;;;14.40;99.90;;;;;;5043022;28;20959;-68
2023/03/19 16:38:54;;;;;;;5.40;3.60;;;14.40;99.90;;;;;;5043792;28;20483;-70
2023/03/19 16:41:25;;;;;;;3.93;3.63;;;14.40;99.90;;;;;;5046301;28;20466;-68
2023/03/19 16:43:54;;;;;;;3.47;3.27;;;14.40;99.90;;;;;;5044009;28;20476;-69
2023/03/19 16:46:21;;;;;;;4.50;3.87;;;14.40;99.90;;;;;;5041452;28;20547;-67
2023/03/19 16:48:47;;;;;;;4.00;3.70;;;14.40;99.90;;;;;;5048642;28;20496;-68
2023/03/19 16:51:16;;;;;;;4.77;4.23;;;14.40;99.90;;;;;;5048938;28;22205;-68
2023/03/19 16:53:43;;;;;;;3.67;3.57;;;14.40;99.90;;;;;;5046717;28;20530;-68
2023/03/19 16:56:13;;;;;;;3.50;3.30;;;14.30;99.90;;;;;;5050365;28;20753;-68
2023/03/19 16:58:41;;;;;;;4.33;3.73;;;14.30;99.90;;;;;;5049932;28;20525;-67
2023/03/19 17:01:16;;;;;;;5.47;3.47;;;14.30;99.90;;;;;;5046230;28;21133;-67
2023/03/19 17:03:43;;;;;;;4.40;4.00;;;14.20;99.90;;;;;;5050975;28;20476;-68
2023/03/19 17:06:11;;;;;;;4.10;3.80;;;14.20;99.90;;;;;;5052024;28;20496;-68
2023/03/19 17:08:38;;;;;;;4.13;3.83;;;14.10;99.90;;;;;;5046913;28;20491;-67
2023/03/19 17:11:05;;;;;;;5.47;4.13;;;14.10;99.90;;;;;;5049083;28;20472;-68
2023/03/19 17:13:36;;;;;;;5.77;3.80;;;14.00;99.90;;;;;;5048060;28;20469;-68
2023/03/19 17:16:05;;;;;;;5.13;4.53;;;13.90;99.90;;;;;;5053375;28;20479;-67
2023/03/19 17:21:13;;;;;;;4.37;4.07;;;13.70;99.90;;;;;;5067459;28;20985;-67
2023/03/19 17:23:40;;;;;;;4.73;4.37;;;13.70;99.90;;;;;;5064539;28;20471;-66
2023/03/19 17:26:14;;;;;;;4.60;4.30;;;13.60;99.90;;;;;;5069198;28;20467;-67
2023/03/19 17:28:41;;;;;;;4.73;4.40;;;13.50;99.90;;;;;;5072326;28;20481;-66
2023/03/19 17:31:23;;;;;;;6.33;4.10;;;13.40;99.90;;;;;;5062734;28;20478;-66
2023/03/19 17:33:50;;;;;;;4.37;4.13;;;13.30;99.90;;;;;;5070404;28;20463;-67
2023/03/19 17:36:18;;;;;;;7.00;6.37;;;13.20;99.90;;;;;;5060565;28;20469;-68
2023/03/19 17:38:45;;;;;;;5.20;4.70;;;13.20;99.90;;;;;;5076441;28;20481;-67
2023/03/19 17:41:15;;;;;;;4.90;4.37;;;13.10;99.90;;;;;;5066222;28;20839;-67
2023/03/19 17:43:42;;;;;;;5.30;4.80;;;13.00;99.90;;;;;;5064648;28;20467;-67
2023/03/19 17:46:14;;;;;;;7.77;6.13;;;13.00;99.90;;;;;;5067005;28;20463;-67
2023/03/19 17:48:41;;;;;;;9.60;5.20;;;12.90;99.90;;;;;;5063571;28;21342;-67
2023/03/19 17:51:10;;;;;;;5.57;4.23;;;12.80;99.90;;;;;;5074532;28;20466;-67
2023/03/19 17:53:38;;;;;;;11.03;4.60;;;12.80;99.90;;;;;;5070352;28;20467;-67
2023/03/19 18:09:00;;;;;;;12.10;9.18;;;12.30;99.90;;;;;;5044780;28;20457;-66
2023/03/19 18:11:27;;;;;;;9.05;7.38;;;12.20;99.90;;;;;;5023920;28;20217;-68
2023/03/19 18:13:53;;;;;;;8.23;5.67;;;12.20;99.90;;;;;;5027100;28;20203;-68
2023/03/19 18:16:25;;;;;;;10.20;6.05;;;12.10;99.90;;;;;;5024118;28;21352;-65
2023/03/19 18:18:52;;;;;;;7.82;5.85;;;12.10;99.90;;;;;;5024125;28;20290;-66
2023/03/19 18:21:19;;;;;;;8.95;6.43;;;12.00;99.90;;;;;;5031930;28;20202;-68
2023/03/19 18:23:46;;;;;;;7.15;6.07;;;12.00;99.90;;;;;;5019682;28;20684;-66
2023/03/19 18:26:15;;;;;;;18.13;6.28;;;11.90;99.90;;;;;;5022708;28;20668;-67